Time;durP1;ratioP1;P1;durP2;ratioP2;P2;SDS_P1;SDS_P2;PMS_P1;PMS_P2;Temp;Humidity;BMP_temperature;BMP_pressure;BME280_temperature;BME280_humidity;BME280_pressure;Samples;Min_cycle;Max_cycle;Signal;HPM_P1;HPM_P2
2023/04/12 00:01:33;;;;;;;6.47;5.82;;;;;;;;;;5034361;28;20051;-63
2023/04/12 00:04:03;;;;;;;5.82;5.22;;;;;;;;;;5034822;28;20037;-62
2023/04/12 00:06:31;;;;;;;6.38;5.78;;;;;;;;;;5034775;28;20034;-62
2023/04/12 00:09:03;;;;;;;6.18;5.47;;;;;;;;;;5016532;28;20025;-63
2023/04/12 00:11:30;;;;;;;7.55;6.13;;;;;;;;;;5034319;28;20111;-63
2023/04/12 00:13:55;;;;;;;5.97;5.38;;;;;;;;;;5034590;28;20041;-63
2023/04/12 00:16:21;;;;;;;6.32;5.72;;;;;;;;;;5016411;28;20029;-55
2023/04/12 00:18:46;;;;;;;8.73;5.88;;;;;;;;;;5034303;28;20025;-62
2023/04/12 00:21:12;;;;;;;5.75;5.25;;;;;;;;;;5033815;28;20559;-63
2023/04/12 00:23:38;;;;;;;5.57;4.78;;;;;;;;;;5016357;28;20083;-63
2023/04/12 00:26:03;;;;;;;6.13;5.28;;;;;;;;;;5034812;28;20473;-63
2023/04/12 00:28:29;;;;;;;6.68;5.05;;;;;;;;;;5034203;28;20037;-55
2023/04/12 00:30:54;;;;;;;4.90;4.50;;;;;;;;;;5034389;28;20103;-55
2023/04/12 00:33:20;;;;;;;4.80;4.40;;;;;;;;;;5034386;28;20543;-55
2023/04/12 00:35:45;;;;;;;5.88;4.07;;;;;;;;;;5034080;28;20029;-55
2023/04/12 00:38:14;;;;;;;4.75;4.35;;;;;;;;;;5016609;28;20017;-55
2023/04/12 00:40:40;;;;;;;4.43;4.13;;;;;;;;;;5034615;28;20029;-62
2023/04/12 00:43:06;;;;;;;4.07;3.78;;;;;;;;;;5034364;28;20025;-55
2023/04/12 00:45:31;;;;;;;3.58;3.28;;;;;;;;;;5034046;28;20045;-55
2023/04/12 00:47:56;;;;;;;3.92;3.60;;;;;;;;;;5016011;28;20036;-55
2023/04/12 00:50:22;;;;;;;3.30;3.10;;;;;;;;;;5015970;28;20041;-55
2023/04/12 00:52:50;;;;;;;3.05;2.78;;;;;;;;;;5033819;28;20032;-55
2023/04/12 00:55:16;;;;;;;3.50;3.20;;;;;;;;;;5034032;28;20455;-55
2023/04/12 00:57:45;;;;;;;2.92;2.72;;;;;;;;;;5016188;28;20522;-63
2023/04/12 01:00:11;;;;;;;2.65;2.45;;;;;;;;;;5033226;28;20040;-62
2023/04/12 01:02:38;;;;;;;2.58;2.45;;;;;;;;;;5034004;28;20456;-62
2023/04/12 01:05:04;;;;;;;2.75;2.55;;;;;;;;;;5016390;28;20041;-63
2023/04/12 01:07:53;;;;;;;2.72;2.53;;;;;;;;;;5033642;28;20033;-63
2023/04/12 01:10:37;;;;;;;2.90;2.65;;;;;;;;;;5005533;28;20050;-63
2023/04/12 01:13:13;;;;;;;2.97;2.78;;;;;;;;;;5033668;28;20033;-63
2023/04/12 01:15:45;;;;;;;2.55;2.35;;;;;;;;;;5015976;28;20380;-62
2023/04/12 01:18:18;;;;;;;2.58;2.40;;;;;;;;;;5015999;28;20349;-62
2023/04/12 01:20:53;;;;;;;2.67;2.30;;;;;;;;;;5032390;28;20165;-62
2023/04/12 01:23:38;;;;;;;2.58;2.42;;;;;;;;;;5033900;28;20063;-62
2023/04/12 01:26:20;;;;;;;2.60;2.40;;;;;;;;;;5015879;28;20074;-61
2023/04/12 01:28:47;;;;;;;2.65;2.53;;;;;;;;;;5033421;28;20025;-61
2023/04/12 01:31:13;;;;;;;2.58;2.38;;;;;;;;;;5033478;28;20033;-63
2023/04/12 01:33:39;;;;;;;2.00;1.90;;;;;;;;;;5033861;28;20498;-63
2023/04/12 01:36:10;;;;;;;2.35;2.25;;;;;;;;;;5015966;28;20022;-63
2023/04/12 01:38:36;;;;;;;2.65;2.33;;;;;;;;;;5033323;28;20036;-62
2023/04/12 01:41:01;;;;;;;2.53;1.88;;;;;;;;;;5015565;28;20026;-63
2023/04/12 01:43:27;;;;;;;2.80;2.17;;;;;;;;;;5033569;28;20391;-55
2023/04/12 01:45:53;;;;;;;1.88;1.77;;;;;;;;;;5012481;28;20428;-55
2023/04/12 01:48:19;;;;;;;1.77;1.67;;;;;;;;;;5012229;28;20059;-54
2023/04/12 01:50:58;;;;;;;2.45;1.90;;;;;;;;;;5009242;28;20440;-55
2023/04/12 01:53:59;;;;;;;2.10;2.00;;;;;;;;;;4994119;28;20145;-54
2023/04/12 01:56:29;;;;;;;2.50;2.00;;;;;;;;;;4953273;29;20047;-55
2023/04/12 01:58:54;;;;;;;1.73;1.63;;;;;;;;;;4969767;28;20042;-55
2023/04/12 02:01:21;;;;;;;2.17;2.00;;;;;;;;;;4976167;28;20027;-62
2023/04/12 02:03:48;;;;;;;1.85;1.75;;;;;;;;;;4976764;28;20018;-62
2023/04/12 02:06:14;;;;;;;2.47;2.05;;;;;;;;;;4976692;28;20026;-62
2023/04/12 02:08:40;;;;;;;2.13;2.00;;;;;;;;;;4994317;28;20034;-62
2023/04/12 02:11:08;;;;;;;3.40;2.20;;;;;;;;;;4977967;28;20041;-62
2023/04/12 02:13:33;;;;;;;3.58;2.38;;;;;;;;;;4997649;28;20030;-62
2023/04/12 02:16:01;;;;;;;2.70;2.50;;;;;;;;;;4979880;28;20029;-55
2023/04/12 02:18:26;;;;;;;2.30;2.20;;;;;;;;;;5012323;28;20030;-55
2023/04/12 02:20:53;;;;;;;2.50;2.40;;;;;;;;;;4979921;28;20057;-55
2023/04/12 02:23:19;;;;;;;2.50;2.30;;;;;;;;;;4997378;28;20034;-55
2023/04/12 02:25:45;;;;;;;2.85;2.58;;;;;;;;;;4997317;28;20126;-55
2023/04/12 02:28:12;;;;;;;3.33;2.40;;;;;;;;;;4979863;28;20037;-62
2023/04/12 02:30:41;;;;;;;2.40;2.20;;;;;;;;;;4997149;28;20388;-62
2023/04/12 02:33:12;;;;;;;2.72;2.40;;;;;;;;;;4980053;28;20407;-55
2023/04/12 02:35:38;;;;;;;2.50;2.30;;;;;;;;;;5027131;22;20049;-55
2023/04/12 02:38:07;;;;;;;2.63;2.42;;;;;;;;;;4995209;28;20054;-55
2023/04/12 02:40:37;;;;;;;3.70;3.20;;;;;;;;;;4995512;28;20027;-63
2023/04/12 02:43:02;;;;;;;3.03;2.63;;;;;;;;;;4998885;28;20505;-62
2023/04/12 02:45:37;;;;;;;2.90;2.65;;;;;;;;;;4998898;28;20022;-55
2023/04/12 02:48:04;;;;;;;2.45;2.35;;;;;;;;;;4998825;28;20022;-55
2023/04/12 02:50:29;;;;;;;3.00;2.80;;;;;;;;;;4998711;28;20014;-56
2023/04/12 02:53:07;;;;;;;3.20;2.90;;;;;;;;;;4998774;28;20038;-56
2023/04/12 02:55:33;;;;;;;3.35;2.55;;;;;;;;;;4998686;28;20192;-55
2023/04/12 02:58:01;;;;;;;3.53;2.72;;;;;;;;;;4998814;28;20022;-55
2023/04/12 03:00:34;;;;;;;3.28;3.00;;;;;;;;;;4998696;28;20030;-55
2023/04/12 03:03:01;;;;;;;3.35;3.15;;;;;;;;;;4998291;28;20033;-55
2023/04/12 03:05:30;;;;;;;3.17;2.83;;;;;;;;;;4998572;28;20461;-54
2023/04/12 03:07:55;;;;;;;3.90;2.80;;;;;;;;;;5016198;28;20036;-55
2023/04/12 03:10:34;;;;;;;3.38;3.05;;;;;;;;;;5016094;28;20057;-54
2023/04/12 03:13:03;;;;;;;3.30;3.03;;;;;;;;;;4981668;28;20042;-54
2023/04/12 03:15:38;;;;;;;2.97;2.70;;;;;;;;;;4978693;28;20038;-54
2023/04/12 03:18:03;;;;;;;3.75;2.97;;;;;;;;;;4995914;28;20022;-55
2023/04/12 03:20:37;;;;;;;2.80;2.60;;;;;;;;;;5029156;22;20136;-54
2023/04/12 03:23:12;;;;;;;2.97;2.78;;;;;;;;;;5026704;22;20065;-54
2023/04/12 03:25:43;;;;;;;3.40;3.10;;;;;;;;;;4992233;28;20133;-61
2023/04/12 03:29:07;;;;;;;3.05;2.67;;;;;;;;;;4985261;23;20029;-54
2023/04/12 03:31:35;;;;;;;3.17;2.97;;;;;;;;;;5042945;23;20049;-55
2023/04/12 03:34:09;;;;;;;3.40;3.20;;;;;;;;;;5029064;22;20065;-62
2023/04/12 03:36:38;;;;;;;3.45;3.15;;;;;;;;;;4997804;28;20030;-62
2023/04/12 03:39:16;;;;;;;3.13;2.92;;;;;;;;;;5015331;28;20374;-63
2023/04/12 03:41:43;;;;;;;3.30;3.00;;;;;;;;;;5014156;28;20149;-63
2023/04/12 03:44:09;;;;;;;2.92;2.72;;;;;;;;;;4996742;28;20169;-63
2023/04/12 03:46:35;;;;;;;3.35;3.15;;;;;;;;;;5013661;28;20061;-55
2023/04/12 03:49:05;;;;;;;3.40;3.17;;;;;;;;;;5014454;28;20040;-55
2023/04/12 03:51:34;;;;;;;4.10;3.17;;;;;;;;;;4997366;28;20037;-55
2023/04/12 03:54:01;;;;;;;;;;;;;;;;;;4998031;28;20041;-55
2023/04/12 03:56:29;;;;;;;3.47;3.17;;;;;;;;;;5014023;28;20352;-54
2023/04/12 03:58:56;;;;;;;3.30;3.08;;;;;;;;;;5013526;28;20476;-54
2023/04/12 04:01:22;;;;;;;3.15;2.95;;;;;;;;;;4997363;28;20029;-55
2023/04/12 04:03:49;;;;;;;6.75;3.00;;;;;;;;;;5013986;28;20029;-55
2023/04/12 04:06:19;;;;;;;3.30;3.05;;;;;;;;;;5013477;28;20037;-55
2023/04/12 04:08:45;;;;;;;3.40;3.20;;;;;;;;;;4997440;28;20387;-55
2023/04/12 04:11:11;;;;;;;3.72;3.42;;;;;;;;;;4996891;28;20126;-63
2023/04/12 04:13:40;;;;;;;3.33;3.08;;;;;;;;;;4997064;28;20025;-62
2023/04/12 04:16:09;;;;;;;3.78;3.58;;;;;;;;;;4996935;28;20021;-64
2023/04/12 04:18:35;;;;;;;3.88;3.58;;;;;;;;;;4996936;28;20113;-62
2023/04/12 04:21:01;;;;;;;4.00;3.70;;;;;;;;;;4997034;28;20057;-62
2023/04/12 04:23:29;;;;;;;4.07;3.70;;;;;;;;;;4981478;28;20017;-63
2023/04/12 04:25:57;;;;;;;3.70;3.40;;;;;;;;;;5013382;28;20456;-62
2023/04/12 04:28:24;;;;;;;4.03;3.65;;;;;;;;;;4993767;28;20029;-61
2023/04/12 04:30:56;;;;;;;3.70;3.50;;;;;;;;;;5003318;28;20026;-61
2023/04/12 04:33:23;;;;;;;4.22;3.67;;;;;;;;;;4992223;28;20053;-61
2023/04/12 04:35:50;;;;;;;4.55;4.00;;;;;;;;;;4990428;28;20065;-61
2023/04/12 04:38:24;;;;;;;4.25;3.88;;;;;;;;;;4992180;28;20037;-61
2023/04/12 04:40:54;;;;;;;4.15;3.65;;;;;;;;;;4991887;28;20044;-61
2023/04/12 04:43:25;;;;;;;3.90;3.60;;;;;;;;;;4991472;28;20468;-62
2023/04/12 04:45:56;;;;;;;3.65;3.42;;;;;;;;;;4995268;28;20036;-61
2023/04/12 04:48:23;;;;;;;4.38;3.97;;;;;;;;;;5012398;28;20443;-61
2023/04/12 04:50:50;;;;;;;3.95;3.45;;;;;;;;;;5012244;28;20495;-61
2023/04/12 04:53:17;;;;;;;4.10;3.80;;;;;;;;;;4979007;28;20045;-62
2023/04/12 04:55:43;;;;;;;4.03;3.80;;;;;;;;;;4978452;28;20030;-62
2023/04/12 04:58:08;;;;;;;4.13;3.78;;;;;;;;;;4994736;28;20376;-55
2023/04/12 05:00:35;;;;;;;4.47;4.18;;;;;;;;;;4995674;28;20037;-54
2023/04/12 05:03:04;;;;;;;3.97;3.67;;;;;;;;;;4995909;28;20026;-55
2023/04/12 05:05:29;;;;;;;4.80;4.03;;;;;;;;;;4995623;28;20032;-55
2023/04/12 05:08:04;;;;;;;5.00;4.20;;;;;;;;;;4995897;28;20037;-62
2023/04/12 05:10:32;;;;;;;4.22;3.85;;;;;;;;;;4994550;28;20026;-62
2023/04/12 05:13:00;;;;;;;4.70;4.30;;;;;;;;;;4994849;28;20030;-62
2023/04/12 05:15:29;;;;;;;5.15;3.92;;;;;;;;;;4995171;28;20026;-62
2023/04/12 05:17:54;;;;;;;3.67;3.38;;;;;;;;;;4995216;28;20057;-62
2023/04/12 05:20:20;;;;;;;4.68;4.35;;;;;;;;;;4994643;28;20451;-63
2023/04/12 05:22:45;;;;;;;4.57;4.18;;;;;;;;;;4993044;28;20026;-62
2023/04/12 05:25:12;;;;;;;4.57;4.18;;;;;;;;;;5027079;28;20404;-62
2023/04/12 05:27:51;;;;;;;4.68;4.28;;;;;;;;;;5027484;28;20046;-62
2023/04/12 05:30:16;;;;;;;5.22;4.22;;;;;;;;;;4993808;28;20068;-62
2023/04/12 05:32:43;;;;;;;4.80;4.35;;;;;;;;;;4956323;28;1121273;-62
2023/04/12 05:35:09;;;;;;;4.60;4.25;;;;;;;;;;4995441;28;20040;-62
2023/04/12 05:37:37;;;;;;;4.53;4.13;;;;;;;;;;5028231;28;20018;-63
2023/04/12 05:40:05;;;;;;;4.45;4.05;;;;;;;;;;5013000;28;20022;-63
2023/04/12 05:42:32;;;;;;;4.60;4.20;;;;;;;;;;5028142;28;20022;-63
2023/04/12 05:44:57;;;;;;;4.10;3.80;;;;;;;;;;5013291;28;20124;-62
2023/04/12 05:47:23;;;;;;;4.38;4.07;;;;;;;;;;4999433;28;20053;-63
2023/04/12 05:49:49;;;;;;;4.43;4.03;;;;;;;;;;5032589;28;20465;-63
2023/04/12 05:52:16;;;;;;;4.40;4.03;;;;;;;;;;4999617;28;20026;-63
2023/04/12 05:54:42;;;;;;;4.45;4.05;;;;;;;;;;4999155;28;20365;-63
2023/04/12 05:57:12;;;;;;;4.80;4.40;;;;;;;;;;4998266;28;20049;-63
2023/04/12 05:59:38;;;;;;;4.68;4.15;;;;;;;;;;5016916;28;20036;-63
2023/04/12 06:02:03;;;;;;;4.57;4.20;;;;;;;;;;4999106;28;20116;-63
2023/04/12 06:04:30;;;;;;;4.88;4.32;;;;;;;;;;4998950;28;20038;-62
2023/04/12 06:06:56;;;;;;;4.65;4.25;;;;;;;;;;5016671;28;20034;-63
2023/04/12 06:09:21;;;;;;;5.80;4.65;;;;;;;;;;5015294;28;20026;-63
2023/04/12 06:11:47;;;;;;;5.13;4.13;;;;;;;;;;5016415;28;20523;-62
2023/04/12 06:14:12;;;;;;;4.55;4.15;;;;;;;;;;4998787;28;20017;-63
2023/04/12 06:16:38;;;;;;;5.22;4.72;;;;;;;;;;4998818;28;20030;-63
2023/04/12 06:19:04;;;;;;;5.13;4.75;;;;;;;;;;5016374;28;20024;-63
2023/04/12 06:21:29;;;;;;;4.85;4.45;;;;;;;;;;5016614;28;20104;-63
2023/04/12 06:23:55;;;;;;;5.18;4.78;;;;;;;;;;5031560;28;20040;-63
2023/04/12 06:26:20;;;;;;;4.32;3.92;;;;;;;;;;5016291;28;20084;-62
2023/04/12 06:28:45;;;;;;;4.63;4.32;;;;;;;;;;5016221;28;20061;-63
2023/04/12 06:31:11;;;;;;;4.90;4.60;;;;;;;;;;4998556;28;20064;-63
2023/04/12 06:33:39;;;;;;;5.40;4.90;;;;;;;;;;5031154;28;20050;-62
2023/04/12 06:36:07;;;;;;;5.10;4.68;;;;;;;;;;4998385;28;20032;-63
2023/04/12 06:38:32;;;;;;;5.15;4.75;;;;;;;;;;5016050;28;20384;-62
2023/04/12 06:40:58;;;;;;;4.97;4.68;;;;;;;;;;5015969;28;20116;-62
2023/04/12 06:43:23;;;;;;;5.10;4.70;;;;;;;;;;5015893;28;20041;-62
2023/04/12 06:45:51;;;;;;;5.47;4.97;;;;;;;;;;5015780;28;20044;-63
2023/04/12 06:48:16;;;;;;;5.07;4.68;;;;;;;;;;5015827;28;20041;-62
2023/04/12 06:50:43;;;;;;;5.30;4.80;;;;;;;;;;5015762;28;20034;-63
2023/04/12 06:53:08;;;;;;;5.78;4.80;;;;;;;;;;5015674;28;20121;-63
2023/04/12 06:55:33;;;;;;;4.95;4.55;;;;;;;;;;5015609;28;20042;-62
2023/04/12 06:57:59;;;;;;;5.30;4.78;;;;;;;;;;5014656;28;20103;-62
2023/04/12 07:00:24;;;;;;;5.25;4.75;;;;;;;;;;5015612;28;20030;-62
2023/04/12 07:02:50;;;;;;;5.72;5.10;;;;;;;;;;5015605;28;20121;-62
2023/04/12 07:05:15;;;;;;;5.75;5.03;;;;;;;;;;5015399;28;20034;-55
2023/04/12 07:07:40;;;;;;;7.10;5.10;;;;;;;;;;5015535;28;20037;-55
2023/04/12 07:10:06;;;;;;;5.60;5.10;;;;;;;;;;5015512;28;20028;-55
2023/04/12 07:12:38;;;;;;;6.03;5.43;;;;;;;;;;5015482;28;20439;-55
2023/04/12 07:15:04;;;;;;;5.50;5.00;;;;;;;;;;5015296;28;20448;-55
2023/04/12 07:17:29;;;;;;;6.68;3.65;;;;;;;;;;5015248;28;20101;-55
2023/04/12 07:19:55;;;;;;;3.97;3.58;;;;;;;;;;5015263;28;20431;-55
2023/04/12 07:22:20;;;;;;;4.03;3.63;;;;;;;;;;5015459;28;20030;-55
2023/04/12 07:24:46;;;;;;;4.47;4.18;;;;;;;;;;5015076;28;20028;-55
2023/04/12 07:27:12;;;;;;;4.78;4.32;;;;;;;;;;5015034;28;20034;-55
2023/04/12 07:29:37;;;;;;;4.55;4.22;;;;;;;;;;5015136;28;20049;-55
2023/04/12 07:32:04;;;;;;;4.05;3.60;;;;;;;;;;5014981;28;20057;-55
2023/04/12 07:34:30;;;;;;;4.45;4.07;;;;;;;;;;5014659;28;20046;-55
2023/04/12 07:36:55;;;;;;;5.30;4.80;;;;;;;;;;5014953;28;20029;-55
2023/04/12 07:39:20;;;;;;;4.68;4.32;;;;;;;;;;5014832;28;20022;-55
2023/04/12 07:41:48;;;;;;;6.70;4.18;;;;;;;;;;5014798;28;20436;-55
2023/04/12 07:44:13;;;;;;;8.73;7.18;;;;;;;;;;4997313;28;20034;-55
2023/04/12 07:46:40;;;;;;;5.32;4.82;;;;;;;;;;4997166;28;20029;-55
2023/04/12 07:49:06;;;;;;;4.75;4.35;;;;;;;;;;4997207;28;20392;-55
2023/04/12 07:51:32;;;;;;;3.85;3.55;;;;;;;;;;5014638;28;20030;-55
2023/04/12 07:53:58;;;;;;;6.53;4.28;;;;;;;;;;5014585;28;20077;-55
2023/04/12 07:56:23;;;;;;;4.43;4.03;;;;;;;;;;5014890;28;20127;-55
2023/04/12 07:58:48;;;;;;;5.63;4.85;;;;;;;;;;5014469;28;20104;-55
2023/04/12 08:01:14;;;;;;;4.38;4.03;;;;;;;;;;5014742;28;20092;-55
2023/04/12 08:03:39;;;;;;;4.65;4.30;;;;;;;;;;5014435;28;20029;-55
2023/04/12 08:06:05;;;;;;;5.07;4.68;;;;;;;;;;5014420;28;20117;-55
2023/04/12 08:08:30;;;;;;;4.68;4.28;;;;;;;;;;5014121;28;20048;-55
2023/04/12 08:11:02;;;;;;;3.75;3.45;;;;;;;;;;5014293;28;20109;-55
2023/04/12 08:13:27;;;;;;;4.03;3.83;;;;;;;;;;5014229;28;20038;-55
2023/04/12 08:15:52;;;;;;;4.32;4.05;;;;;;;;;;5014179;28;20036;-55
2023/04/12 08:18:17;;;;;;;4.53;3.75;;;;;;;;;;5014505;28;20032;-55
2023/04/12 08:20:43;;;;;;;4.45;4.10;;;;;;;;;;4996626;28;20052;-55
2023/04/12 08:23:09;;;;;;;4.10;3.67;;;;;;;;;;5014023;28;20026;-55
2023/04/12 08:25:34;;;;;;;3.90;3.70;;;;;;;;;;5014095;28;20026;-55
2023/04/12 08:28:00;;;;;;;3.97;3.72;;;;;;;;;;5014047;28;20037;-55
2023/04/12 08:30:29;;;;;;;3.70;3.50;;;;;;;;;;4980291;28;20079;-55
2023/04/12 08:32:55;;;;;;;4.40;4.00;;;;;;;;;;5013844;28;20046;-55
2023/04/12 08:35:21;;;;;;;4.00;3.72;;;;;;;;;;4996379;28;20033;-55
2023/04/12 08:37:46;;;;;;;3.95;3.65;;;;;;;;;;5013913;28;20022;-55
2023/04/12 08:40:12;;;;;;;3.95;3.70;;;;;;;;;;4996698;28;20037;-55
2023/04/12 08:42:38;;;;;;;3.90;3.60;;;;;;;;;;5013858;28;20065;-55
2023/04/12 08:45:07;;;;;;;4.20;3.90;;;;;;;;;;5013844;28;20037;-55
2023/04/12 08:47:39;;;;;;;21.95;13.55;;;;;;;;;;5013641;28;20052;-55
2023/04/12 08:50:08;;;;;;;41.63;26.05;;;;;;;;;;5013747;28;20442;-55
2023/04/12 08:52:34;;;;;;;12.18;9.20;;;;;;;;;;5013721;28;20121;-55
2023/04/12 08:55:05;;;;;;;5.03;4.63;;;;;;;;;;5013577;28;20029;-55
2023/04/12 08:57:34;;;;;;;3.90;3.60;;;;;;;;;;5013663;28;20105;-55
2023/04/12 09:00:00;;;;;;;4.20;3.90;;;;;;;;;;4996176;28;20061;-55
2023/04/12 09:02:26;;;;;;;9.35;7.95;;;;;;;;;;5013589;28;20064;-55
2023/04/12 09:04:52;;;;;;;8.02;7.10;;;;;;;;;;5013859;28;20460;-55
2023/04/12 09:07:26;;;;;;;7.95;6.07;;;;;;;;;;5028752;28;20030;-55
2023/04/12 09:09:52;;;;;;;7.45;6.65;;;;;;;;;;5013521;28;20038;-55
2023/04/12 09:12:21;;;;;;;13.00;8.95;;;;;;;;;;5013463;28;20034;-55
2023/04/12 09:14:46;;;;;;;5.95;5.10;;;;;;;;;;5013377;28;20044;-55
2023/04/12 09:17:27;;;;;;;5.15;3.38;;;;;;;;;;5013453;28;20528;-55
2023/04/12 09:19:54;;;;;;;4.22;3.40;;;;;;;;;;5013488;28;20112;-55
2023/04/12 09:22:31;;;;;;;3.38;3.15;;;;;;;;;;5016936;28;20010;-55
2023/04/12 09:24:56;;;;;;;4.30;2.90;;;;;;;;;;5017636;28;20037;-55
2023/04/12 09:27:22;;;;;;;14.88;10.43;;;;;;;;;;5017332;28;20392;-55
2023/04/12 09:29:50;;;;;;;21.73;16.02;;;;;;;;;;5017225;28;20033;-55
2023/04/12 09:32:26;;;;;;;5.95;5.50;;;;;;;;;;5017238;28;20030;-55
2023/04/12 09:34:55;;;;;;;3.00;2.83;;;;;;;;;;5017366;28;20042;-55
2023/04/12 09:37:21;;;;;;;2.78;2.63;;;;;;;;;;5017170;28;20033;-55
2023/04/12 09:39:46;;;;;;;2.35;2.17;;;;;;;;;;5017114;28;20029;-55
2023/04/12 09:42:11;;;;;;;2.03;1.92;;;;;;;;;;5017016;28;20036;-55
2023/04/12 09:44:37;;;;;;;2.63;2.38;;;;;;;;;;4999614;28;20500;-55
2023/04/12 09:47:04;;;;;;;4.30;2.55;;;;;;;;;;5016986;28;20033;-55
2023/04/12 09:49:38;;;;;;;2.70;2.13;;;;;;;;;;5016916;28;20036;-55
2023/04/12 09:52:09;;;;;;;2.45;2.28;;;;;;;;;;5016892;28;20491;-55
2023/04/12 09:54:44;;;;;;;2.67;2.40;;;;;;;;;;5015518;28;20542;-55
2023/04/12 09:57:10;;;;;;;2.53;2.42;;;;;;;;;;5017065;28;20018;-55
2023/04/12 09:59:37;;;;;;;2.20;2.08;;;;;;;;;;5016900;28;20432;-54
2023/04/12 10:02:23;;;;;;;2.10;1.90;;;;;;;;;;5016945;28;20022;-55
2023/04/12 10:04:48;;;;;;;3.00;2.80;;;;;;;;;;5016005;28;20046;-55
2023/04/12 10:07:14;;;;;;;2.50;2.40;;;;;;;;;;5016545;28;20396;-55
2023/04/12 10:09:40;;;;;;;4.82;3.20;;;;;;;;;;5016575;28;20026;-55
2023/04/12 10:12:06;;;;;;;2.17;1.98;;;;;;;;;;5016570;28;20038;-55
2023/04/12 10:14:32;;;;;;;3.75;2.95;;;;;;;;;;5016356;28;20036;-55
2023/04/12 10:17:00;;;;;;;3.35;2.67;;;;;;;;;;5016498;28;20034;-55
2023/04/12 10:19:26;;;;;;;7.43;4.45;;;;;;;;;;5016381;28;20472;-55
2023/04/12 10:21:52;;;;;;;5.28;3.95;;;;;;;;;;5016333;28;20030;-55
2023/04/12 10:24:20;;;;;;;3.50;3.00;;;;;;;;;;5016449;28;20033;-55
2023/04/12 10:26:46;;;;;;;2.00;1.80;;;;;;;;;;4998627;28;20041;-55
2023/04/12 10:29:30;;;;;;;2.28;2.10;;;;;;;;;;5016088;28;20542;-55
2023/04/12 10:32:14;;;;;;;2.33;2.13;;;;;;;;;;5016163;28;20041;-55
2023/04/12 10:34:41;;;;;;;6.18;4.38;;;;;;;;;;4998329;28;20103;-55
2023/04/12 10:37:06;;;;;;;2.75;2.10;;;;;;;;;;5016077;28;20026;-55
2023/04/12 10:39:38;;;;;;;6.32;5.18;;;;;;;;;;5016295;28;20033;-55
2023/04/12 10:42:17;;;;;;;2.08;1.98;;;;;;;;;;5015982;28;20037;-55
2023/04/12 10:44:43;;;;;;;2.58;2.22;;;;;;;;;;5015826;28;20051;-55
2023/04/12 10:47:11;;;;;;;2.13;1.88;;;;;;;;;;5015783;28;20101;-55
2023/04/12 10:49:37;;;;;;;3.85;2.78;;;;;;;;;;5015918;28;20034;-55
2023/04/12 10:52:09;;;;;;;2.75;2.55;;;;;;;;;;5015775;28;20038;-55
2023/04/12 10:54:35;;;;;;;3.45;3.15;;;;;;;;;;5015731;28;20029;-55
2023/04/12 10:57:01;;;;;;;3.38;3.08;;;;;;;;;;5015674;28;20415;-55
2023/04/12 10:59:47;;;;;;;3.42;2.78;;;;;;;;;;5015631;28;20034;-55
2023/04/12 11:02:13;;;;;;;4.30;3.10;;;;;;;;;;5015662;28;20030;-55
2023/04/12 11:05:00;;;;;;;6.57;3.55;;;;;;;;;;5030803;28;20033;-55
2023/04/12 11:07:45;;;;;;;5.28;4.60;;;;;;;;;;5015268;28;20042;-55
2023/04/12 11:10:37;;;;;;;6.15;4.25;;;;;;;;;;4998206;28;20392;-55
2023/04/12 11:13:07;;;;;;;6.22;4.22;;;;;;;;;;5014216;28;20137;-55
2023/04/12 11:15:33;;;;;;;4.68;3.88;;;;;;;;;;5015284;28;20030;-55
2023/04/12 11:17:59;;;;;;;10.75;6.25;;;;;;;;;;5015354;28;20038;-55
2023/04/12 11:20:25;;;;;;;21.52;9.38;;;;;;;;;;5015297;28;20033;-55
2023/04/12 11:22:52;;;;;;;16.63;9.00;;;;;;;;;;5015133;28;20034;-55
2023/04/12 11:25:18;;;;;;;8.00;5.07;;;;;;;;;;4997567;28;20488;-55
2023/04/12 11:27:53;;;;;;;8.15;5.43;;;;;;;;;;5015064;28;20052;-55
2023/04/12 11:30:19;;;;;;;7.13;6.05;;;;;;;;;;5015100;28;20528;-62
2023/04/12 11:32:45;;;;;;;10.02;5.95;;;;;;;;;;5014867;28;20060;-55
2023/04/12 11:35:10;;;;;;;12.55;7.25;;;;;;;;;;5034297;22;20508;-62
2023/04/12 11:37:37;;;;;;;26.00;11.25;;;;;;;;;;5033540;28;20583;-62
2023/04/12 11:40:04;;;;;;;19.90;10.63;;;;;;;;;;5034856;28;20116;-62
2023/04/12 11:42:31;;;;;;;10.68;6.43;;;;;;;;;;5034758;28;20029;-62
2023/04/12 11:44:57;;;;;;;13.05;8.35;;;;;;;;;;5034135;28;20033;-62
2023/04/12 11:47:22;;;;;;;16.17;8.10;;;;;;;;;;5016959;28;20056;-62
2023/04/12 11:49:49;;;;;;;13.07;7.80;;;;;;;;;;5034430;28;20476;-62
2023/04/12 11:52:15;;;;;;;13.02;6.95;;;;;;;;;;5034417;28;20067;-62
2023/04/12 11:54:45;;;;;;;9.75;5.88;;;;;;;;;;5034288;28;20029;-62
2023/04/12 11:57:11;;;;;;;9.98;7.32;;;;;;;;;;5016960;28;20061;-62
2023/04/12 11:59:37;;;;;;;13.57;8.27;;;;;;;;;;5034310;28;20029;-62
2023/04/12 12:02:03;;;;;;;16.58;9.25;;;;;;;;;;5034222;28;20037;-62
2023/04/12 12:04:29;;;;;;;11.38;6.68;;;;;;;;;;5016339;28;20377;-62
2023/04/12 12:06:57;;;;;;;14.27;11.10;;;;;;;;;;5034110;28;20087;-62
2023/04/12 12:09:24;;;;;;;7.57;5.55;;;;;;;;;;5034085;28;20369;-62
2023/04/12 12:11:50;;;;;;;8.40;6.07;;;;;;;;;;5033991;28;20115;-62
2023/04/12 12:14:22;;;;;;;11.68;7.07;;;;;;;;;;5034013;28;20053;-62
2023/04/12 12:16:52;;;;;;;7.43;5.22;;;;;;;;;;5033944;28;20316;-62
2023/04/12 12:19:25;;;;;;;8.43;5.10;;;;;;;;;;5033951;28;20029;-62
2023/04/12 12:21:51;;;;;;;7.20;4.45;;;;;;;;;;5033901;28;20029;-62
2023/04/12 12:24:16;;;;;;;9.85;5.80;;;;;;;;;;5033790;28;20360;-62
2023/04/12 12:26:42;;;;;;;11.70;6.00;;;;;;;;;;5033827;28;20017;-62
2023/04/12 12:29:15;;;;;;;10.40;6.38;;;;;;;;;;5033752;28;20060;-62
2023/04/12 12:31:44;;;;;;;11.50;7.25;;;;;;;;;;5033729;28;20029;-62
2023/04/12 12:34:11;;;;;;;11.25;6.05;;;;;;;;;;5015837;28;20079;-62
2023/04/12 12:36:37;;;;;;;9.68;5.70;;;;;;;;;;5015923;28;20388;-62
2023/04/12 12:39:05;;;;;;;8.98;5.90;;;;;;;;;;5016067;28;20048;-62
2023/04/12 12:41:31;;;;;;;8.30;5.70;;;;;;;;;;5033589;28;20120;-62
2023/04/12 12:43:56;;;;;;;8.55;5.78;;;;;;;;;;5033827;28;20133;-62
2023/04/12 12:46:21;;;;;;;10.45;6.55;;;;;;;;;;5034116;28;20034;-62
2023/04/12 12:48:47;;;;;;;12.60;6.53;;;;;;;;;;5016445;28;20108;-62
2023/04/12 12:51:13;;;;;;;6.97;4.68;;;;;;;;;;5033784;28;20017;-62
2023/04/12 12:53:39;;;;;;;6.68;4.70;;;;;;;;;;5034026;28;20034;-62
2023/04/12 12:56:05;;;;;;;6.35;4.75;;;;;;;;;;5032845;28;20041;-62
2023/04/12 12:58:33;;;;;;;6.00;4.35;;;;;;;;;;5034224;28;20030;-62
2023/04/12 13:00:59;;;;;;;8.73;4.32;;;;;;;;;;5033922;28;20380;-62
2023/04/12 13:03:24;;;;;;;6.88;4.20;;;;;;;;;;5061291;22;20083;-62
2023/04/12 13:06:21;;;;;;;9.15;5.53;;;;;;;;;;5029347;22;20105;-54
2023/04/12 13:08:46;;;;;;;6.70;4.22;;;;;;;;;;5030076;23;20049;-55
2023/04/12 13:11:11;;;;;;;8.50;5.45;;;;;;;;;;5058648;23;20087;-55
2023/04/12 13:13:38;;;;;;;11.48;6.50;;;;;;;;;;5044794;23;20057;-62
2023/04/12 13:16:03;;;;;;;8.38;5.32;;;;;;;;;;5058227;22;20053;-55
2023/04/12 13:18:29;;;;;;;5.35;3.67;;;;;;;;;;5034281;28;20029;-55
2023/04/12 13:20:54;;;;;;;4.53;3.92;;;;;;;;;;5033497;28;20025;-55
2023/04/12 13:23:19;;;;;;;17.08;7.93;;;;;;;;;;5033687;28;20112;-55
2023/04/12 13:25:45;;;;;;;4.05;3.40;;;;;;;;;;5033739;28;20038;-55
2023/04/12 13:28:11;;;;;;;5.18;3.60;;;;;;;;;;5033699;28;20105;-55
2023/04/12 13:30:36;;;;;;;3.80;3.05;;;;;;;;;;5033406;28;20127;-55
2023/04/12 13:33:02;;;;;;;6.70;3.70;;;;;;;;;;5033234;28;20546;-55
2023/04/12 13:35:28;;;;;;;3.78;3.08;;;;;;;;;;5032985;28;20033;-55
2023/04/12 13:37:53;;;;;;;2.67;2.47;;;;;;;;;;5015779;28;20027;-55
2023/04/12 13:40:18;;;;;;;3.72;2.92;;;;;;;;;;5033335;28;20418;-55
2023/04/12 13:42:43;;;;;;;5.13;2.97;;;;;;;;;;5032158;28;20018;-54
2023/04/12 13:45:10;;;;;;;3.97;3.50;;;;;;;;;;5027921;28;20471;-55
2023/04/12 13:47:35;;;;;;;5.55;3.28;;;;;;;;;;5027408;28;20022;-54
2023/04/12 13:50:01;;;;;;;4.25;3.40;;;;;;;;;;5027775;28;20511;-55
2023/04/12 13:52:26;;;;;;;4.10;3.15;;;;;;;;;;5033176;28;20052;-55
2023/04/12 13:54:51;;;;;;;4.07;3.20;;;;;;;;;;5026151;28;20026;-55
2023/04/12 13:57:17;;;;;;;11.63;3.50;;;;;;;;;;5021896;28;20383;-54
2023/04/12 13:59:42;;;;;;;7.22;3.13;;;;;;;;;;5023352;28;20052;-55
2023/04/12 14:02:08;;;;;;;2.92;2.70;;;;;;;;;;5020663;28;20372;-55
2023/04/12 14:04:33;;;;;;;4.35;3.00;;;;;;;;;;5022112;28;20014;-53
2023/04/12 14:06:58;;;;;;;3.22;2.83;;;;;;;;;;5015995;28;20579;-53
2023/04/12 14:09:28;;;;;;;6.32;3.67;;;;;;;;;;5016294;28;20037;-53
2023/04/12 14:11:54;;;;;;;2.97;2.65;;;;;;;;;;5016999;28;20030;-53
2023/04/12 14:14:20;;;;;;;3.00;2.70;;;;;;;;;;5015863;28;20014;-53
2023/04/12 14:16:46;;;;;;;2.88;2.67;;;;;;;;;;4998620;28;20408;-53
2023/04/12 14:19:11;;;;;;;2.58;2.38;;;;;;;;;;5015744;28;20022;-53
2023/04/12 14:21:37;;;;;;;3.40;2.45;;;;;;;;;;5014620;28;20100;-53
2023/04/12 14:24:02;;;;;;;2.75;2.55;;;;;;;;;;5014571;28;20366;-53
2023/04/12 14:26:28;;;;;;;8.68;5.30;;;;;;;;;;5014631;28;20432;-53
2023/04/12 14:28:53;;;;;;;6.88;4.25;;;;;;;;;;5014606;28;20028;-53
2023/04/12 14:31:18;;;;;;;3.67;2.60;;;;;;;;;;5014623;28;20113;-53
2023/04/12 14:33:43;;;;;;;2.50;2.40;;;;;;;;;;4997310;28;20034;-53
2023/04/12 14:36:09;;;;;;;4.15;2.63;;;;;;;;;;5015780;28;20062;-53
2023/04/12 14:38:34;;;;;;;4.32;3.75;;;;;;;;;;5016625;28;20036;-53
2023/04/12 14:41:00;;;;;;;4.72;2.97;;;;;;;;;;5016328;28;20026;-53
2023/04/12 14:43:26;;;;;;;3.33;2.63;;;;;;;;;;5016305;28;20456;-53
2023/04/12 14:45:51;;;;;;;3.00;2.60;;;;;;;;;;5016525;28;20022;-53